Diamond Back — WDE6773 — position and weather

sailwx.info

Track history (hours):
 
Tides and Currents Weather Stations Pressure Air Temp Water Temp Dewpoint Dewpoint Depression Visibility Wind Speed Wind Dir Waves Ship Positions

Diamond Back

Owner: PENINSULA BAY ENTERPRISES LTD CO, Port Bolivar, TX. More information available from US FCC via Universal Licensing System and Coast Guard Vessel Documentation Center.

Last reported at 2017-Nov-07 19:02 UTC. Time now 2017-Nov-21 19:09 UTC.
Position N 29°32' W 094°54'.
Warning: this ship's position is 14 days out of date.

Length 11 m; draft 2.5 m.

Type: Towing. MMSI: 367384650.

Date/timePositionNaut miles runAvg speedWind from/ knotsBaromVisibWave heightAir tempDewpointWater temp
2017-Nov-07 19:02N 29°32' W 094°54'0 6.6
2017-Nov-07 19:00N 29°32' W 094°54'3 6.5
2017-Nov-07 18:31N 29°33' W 094°58'3 5.9
2017-Nov-07 18:01N 29°33' W 095°01'1 2.8
2017-Nov-07 17:30N 29°33' W 095°03'0 0.1
2017-Nov-07 17:00N 29°33' W 095°03'0 0.0
2017-Nov-07 16:30N 29°33' W 095°03'0 0.0
2017-Nov-07 16:00N 29°33' W 095°03'0 0.0
2017-Nov-07 15:30N 29°33' W 095°03'0 0.0
2017-Nov-07 15:01N 29°33' W 095°03'0 0.0
2017-Nov-07 14:30N 29°33' W 095°03'0 0.0
2017-Nov-07 14:01N 29°33' W 095°03'0 0.0
2017-Nov-07 13:30N 29°33' W 095°03'0 0.4
2017-Nov-07 13:01N 29°33' W 095°03'0 0.9
2017-Nov-07 12:31N 29°33' W 095°02'0 0.0
2017-Nov-07 12:01N 29°33' W 095°02'0 0.0
2017-Nov-07 11:31N 29°33' W 095°02'0 0.0
2017-Nov-07 11:00N 29°33' W 095°02'0 0.0
2017-Nov-07 10:31N 29°33' W 095°02'0 0.0
2017-Nov-07 10:00N 29°33' W 095°02'0 0.0
2017-Nov-07 09:31N 29°33' W 095°02'0 0.0
2017-Nov-07 09:00N 29°33' W 095°02'0 0.0
2017-Nov-07 08:30N 29°33' W 095°02'0 0.0
2017-Nov-07 08:01N 29°33' W 095°02'0 0.0
2017-Nov-07 07:30N 29°33' W 095°02'0 0.0
2017-Nov-07 07:00N 29°33' W 095°02'0 0.0
2017-Nov-07 06:31N 29°33' W 095°02'0 0.0
2017-Nov-07 06:01N 29°33' W 095°02'0 0.0
2017-Nov-07 05:31N 29°33' W 095°02'1 2.0
2017-Nov-07 05:00N 29°33' W 095°01'3 6.8
2017-Nov-07 04:30N 29°33' W 094°57'3 0.4
2017-Nov-06 21:11N 29°32' W 094°54'1 5.8
2017-Nov-06 21:00N 29°32' W 094°55'3 5.9
2017-Nov-06 20:30N 29°33' W 094°58'  
2017-Nov-03 20:10N 29°32' W 094°54'1 5.2
2017-Nov-03 19:57N 29°32' W 094°55'3 5.7
2017-Nov-03 19:31N 29°33' W 094°58'3 5.5
2017-Nov-03 19:00N 29°33' W 095°01'2 3.0
2017-Nov-03 18:30N 29°33' W 095°03'0 0.3
2017-Nov-03 18:01N 29°33' W 095°03'0 0.0
2017-Nov-03 17:30N 29°33' W 095°03'0 0.1
2017-Nov-03 17:00N 29°33' W 095°03'0 0.0
2017-Nov-03 16:30N 29°33' W 095°03'0 0.0
2017-Nov-03 16:00N 29°33' W 095°03'0 0.0
2017-Nov-03 15:31N 29°33' W 095°03'0 0.0
2017-Nov-03 15:00N 29°33' W 095°03'0 0.0
2017-Nov-03 14:31N 29°33' W 095°03'0 0.0
2017-Nov-03 14:01N 29°33' W 095°03'0 0.0
2017-Nov-03 13:31N 29°33' W 095°03'0 0.1
2017-Nov-03 13:01N 29°33' W 095°03'1 1.5
2017-Nov-03 12:30N 29°34' W 095°03'1 1.5
2017-Nov-03 12:00N 29°33' W 095°02'0 0.1
2017-Nov-03 11:31N 29°33' W 095°02'0 0.0
2017-Nov-03 11:01N 29°33' W 095°02'0 0.0
2017-Nov-03 10:30N 29°33' W 095°02'0 0.0
2017-Nov-03 10:01N 29°33' W 095°02'0 0.0
2017-Nov-03 09:31N 29°33' W 095°02'0 0.0
2017-Nov-03 09:00N 29°33' W 095°02'0 0.0
2017-Nov-03 08:30N 29°33' W 095°02'0 0.0
2017-Nov-03 08:00N 29°33' W 095°02'0 0.0
2017-Nov-03 07:31N 29°33' W 095°02'0 0.0
2017-Nov-03 07:01N 29°33' W 095°02'0 0.0
2017-Nov-03 06:31N 29°33' W 095°02'0 0.0
2017-Nov-03 06:00N 29°33' W 095°02'0 0.0
2017-Nov-03 05:30N 29°33' W 095°02'0 0.0
2017-Nov-03 05:01N 29°33' W 095°02'0 0.0
2017-Nov-03 04:31N 29°33' W 095°02'0 0.0
2017-Nov-03 04:01N 29°33' W 095°02'0 0.0
2017-Nov-03 03:31N 29°33' W 095°02'1 1.0
2017-Nov-03 03:01N 29°33' W 095°02'3 5.6
2017-Nov-03 02:31N 29°33' W 094°58'3 6.5
2017-Nov-03 02:01N 29°32' W 094°55'1 0.1
2017-Nov-02 18:39N 29°32' W 094°54'1 5.9
2017-Nov-02 18:30N 29°32' W 094°54'3 6.0
2017-Nov-02 18:00N 29°33' W 094°58'3 5.8
2017-Nov-02 17:30N 29°33' W 095°01'1 2.8
2017-Nov-02 17:00N 29°33' W 095°03'0 0.0
2017-Nov-02 16:31N 29°33' W 095°03'0 0.0
2017-Nov-02 16:00N 29°33' W 095°03'0 0.1
2017-Nov-02 15:31N 29°33' W 095°03'0 0.0
2017-Nov-02 15:00N 29°33' W 095°03'0 0.0
2017-Nov-02 14:31N 29°33' W 095°03'0 0.0
2017-Nov-02 14:01N 29°33' W 095°03'0 0.0
2017-Nov-02 13:31N 29°33' W 095°03'0 0.0
2017-Nov-02 13:01N 29°33' W 095°03'0 0.0
2017-Nov-02 12:31N 29°33' W 095°03'1 1.0
2017-Nov-02 12:01N 29°33' W 095°02'0 0.0
2017-Nov-02 11:31N 29°33' W 095°02'0 0.0
2017-Nov-02 11:00N 29°33' W 095°02'0 0.0
2017-Nov-02 10:30N 29°33' W 095°02'0 0.0
2017-Nov-02 10:01N 29°33' W 095°02'0 0.0
2017-Nov-02 09:30N 29°33' W 095°02'0 0.0
2017-Nov-02 09:01N 29°33' W 095°02'0 0.0
2017-Nov-02 08:30N 29°33' W 095°02'0 0.0
2017-Nov-02 08:01N 29°33' W 095°02'0 0.0
2017-Nov-02 07:31N 29°33' W 095°02'0 0.0
2017-Nov-02 07:00N 29°33' W 095°02'0 0.0
2017-Nov-02 06:30N 29°33' W 095°02'0 0.0
2017-Nov-02 06:01N 29°33' W 095°02'0 0.0
2017-Nov-02 05:31N 29°33' W 095°02'0 0.0
2017-Nov-02 05:01N 29°33' W 095°02'0 0.0
2017-Nov-02 04:30N 29°33' W 095°02'0 0.0
2017-Nov-02 04:01N 29°33' W 095°02'0 0.0
2017-Nov-02 03:31N 29°33' W 095°02'0 0.0
2017-Nov-02 03:01N 29°33' W 095°02'2 3.6
2017-Nov-02 02:31N 29°33' W 095°00'3 6.6
2017-Nov-02 02:01N 29°32' W 094°56'3 0.5
2017-Nov-01 19:21N 29°31' W 094°53'2 6.1
2017-Nov-01 19:01N 29°32' W 094°55'3 6.4
2017-Nov-01 18:30N 29°33' W 094°59'6 0.3
2017-Oct-31 20:48N 29°30' W 094°53'2 5.9
2017-Oct-31 20:27N 29°32' W 094°54'3 5.8
2017-Oct-31 20:00N 29°32' W 094°57'3 6.2
2017-Oct-31 19:31N 29°33' W 095°00'2 3.4
2017-Oct-31 19:01N 29°33' W 095°02'1 1.3
2017-Oct-31 18:31N 29°33' W 095°03'0 0.1
2017-Oct-31 18:00N 29°33' W 095°03'0 0.2
2017-Oct-31 17:31N 29°33' W 095°03'0 0.0
2017-Oct-31 17:01N 29°33' W 095°03'0 0.0
2017-Oct-31 16:31N 29°33' W 095°03'0 0.0
2017-Oct-31 16:00N 29°33' W 095°03'0 0.0
2017-Oct-31 15:31N 29°33' W 095°03'0 0.0
2017-Oct-31 15:01N 29°33' W 095°03'0 0.0
2017-Oct-31 14:31N 29°33' W 095°03'0 0.0
2017-Oct-31 14:01N 29°33' W 095°03'0 0.0
2017-Oct-31 13:30N 29°33' W 095°03'0 0.5
2017-Oct-31 13:01N 29°33' W 095°03'0 0.0
2017-Oct-31 12:31N 29°33' W 095°03'0 0.9
2017-Oct-31 12:00N 29°33' W 095°02'0 0.0
2017-Oct-31 11:30N 29°33' W 095°02'0 0.0
2017-Oct-31 11:00N 29°33' W 095°02'0 0.0
2017-Oct-31 10:30N 29°33' W 095°02'0 0.0
2017-Oct-31 10:01N 29°33' W 095°02'0 0.0
2017-Oct-31 09:30N 29°33' W 095°02'0 0.0
2017-Oct-31 09:01N 29°33' W 095°02'0 0.0
2017-Oct-31 08:30N 29°33' W 095°02'0 0.0
2017-Oct-31 08:00N 29°33' W 095°02'0 0.0
2017-Oct-31 07:30N 29°33' W 095°02'0 0.0
2017-Oct-31 07:00N 29°33' W 095°02'0 0.0
2017-Oct-31 06:30N 29°33' W 095°02'0 0.0
2017-Oct-31 06:01N 29°33' W 095°02'0 0.0
2017-Oct-31 05:31N 29°33' W 095°02'0 0.0
2017-Oct-31 05:00N 29°33' W 095°02'0 0.0
2017-Oct-31 04:30N 29°33' W 095°02'0 0.0
2017-Oct-31 04:01N 29°33' W 095°02'0 0.0
2017-Oct-31 03:31N 29°33' W 095°02'0 0.0
2017-Oct-31 03:01N 29°33' W 095°02'1 1.5
2017-Oct-31 02:30N 29°33' W 095°01'3 6.0
2017-Oct-31 02:00N 29°33' W 094°58'3 6.6
2017-Oct-31 01:30N 29°32' W 094°54'0 0.0
2017-Oct-30 18:45N 29°32' W 094°54'1 5.6
2017-Oct-30 18:30N 29°32' W 094°55'3 6.2
2017-Oct-30 18:00N 29°33' W 094°59'2 4.8
2017-Oct-30 17:30N 29°33' W 095°02'1 1.7
2017-Oct-30 17:01N 29°33' W 095°03'0 0.1
2017-Oct-30 16:30N 29°33' W 095°03'0 0.0
2017-Oct-30 16:00N 29°33' W 095°03'0 0.0
2017-Oct-30 15:31N 29°33' W 095°03'0 0.0
2017-Oct-30 15:01N 29°33' W 095°03'0 0.0
2017-Oct-30 14:31N 29°33' W 095°03'0 0.0
2017-Oct-30 13:31N 29°33' W 095°03'0 0.0
2017-Oct-30 13:01N 29°33' W 095°03'0 0.0
2017-Oct-30 12:31N 29°33' W 095°03'1 1.2
2017-Oct-30 12:01N 29°33' W 095°02'0 0.2
2017-Oct-30 11:30N 29°33' W 095°02'0 0.0
2017-Oct-30 11:00N 29°33' W 095°02'2 3.2
2017-Oct-30 10:31N 29°33' W 095°00'3 6.7
2017-Oct-30 10:00N 29°32' W 094°56'3 6.5
2017-Oct-30 09:30N 29°31' W 094°53'2 0.3
2017-Oct-30 04:05N 29°29' W 094°53'2 5.7
2017-Oct-30 03:49N 29°31' W 094°53'2 6.3
2017-Oct-30 03:30N 29°32' W 094°54'3 6.3
2017-Oct-30 03:00N 29°33' W 094°58'3 5.9
2017-Oct-30 02:30N 29°33' W 095°01'1 2.7
2017-Oct-30 02:01N 29°34' W 095°03'0 0.0
2017-Oct-30 01:31N 29°34' W 095°03'0 0.0
2017-Oct-30 01:01N 29°34' W 095°03'0 0.0
2017-Oct-30 00:31N 29°34' W 095°03'0 0.0
2017-Oct-30 00:01N 29°34' W 095°03'0 0.0
2017-Oct-29 23:31N 29°34' W 095°03'0 0.0
2017-Oct-29 23:00N 29°34' W 095°03'0 0.0
2017-Oct-29 22:31N 29°34' W 095°03'0 0.0
2017-Oct-29 22:01N 29°34' W 095°03'0 0.0
2017-Oct-29 21:30N 29°34' W 095°03'0 0.0
2017-Oct-29 21:01N 29°34' W 095°03'0 0.0
2017-Oct-29 20:31N 29°34' W 095°03'0 0.0
2017-Oct-29 20:01N 29°34' W 095°03'0 0.0
2017-Oct-29 19:31N 29°34' W 095°03'0 0.0
2017-Oct-29 19:01N 29°34' W 095°03'0 0.0
2017-Oct-29 18:31N 29°34' W 095°03'0 0.0
2017-Oct-29 18:00N 29°34' W 095°03'0 0.0
2017-Oct-29 17:31N 29°34' W 095°03'0 0.0
2017-Oct-29 17:01N 29°34' W 095°03'0 0.0
2017-Oct-29 16:30N 29°34' W 095°03'0 0.0
2017-Oct-29 16:01N 29°34' W 095°03'0 0.0
2017-Oct-29 15:31N 29°34' W 095°03'0 0.0
2017-Oct-29 15:01N 29°34' W 095°03'0 0.0
2017-Oct-29 14:31N 29°34' W 095°03'0 0.0
2017-Oct-29 14:01N 29°34' W 095°03'0 0.0
2017-Oct-29 13:31N 29°34' W 095°03'0 0.0
2017-Oct-29 13:01N 29°34' W 095°03'0 0.0
2017-Oct-29 12:30N 29°34' W 095°03'0 0.0
2017-Oct-29 12:01N 29°34' W 095°03'0 0.0
2017-Oct-29 11:31N 29°34' W 095°03'0 0.0
2017-Oct-29 11:00N 29°34' W 095°03'0 0.0
2017-Oct-29 10:30N 29°34' W 095°03'0 0.0
2017-Oct-29 10:01N 29°34' W 095°03'0 0.0
2017-Oct-29 09:31N 29°34' W 095°03'0 0.0
2017-Oct-29 09:01N 29°34' W 095°03'0 0.0
2017-Oct-29 08:31N 29°34' W 095°03'0 0.0
2017-Oct-29 08:00N 29°34' W 095°03'0 0.0
2017-Oct-29 07:30N 29°34' W 095°03'0 0.0
2017-Oct-29 07:01N 29°34' W 095°03'0 0.0
2017-Oct-29 06:30N 29°34' W 095°03'0 0.0
2017-Oct-29 06:01N 29°34' W 095°03'0 0.0
2017-Oct-29 05:31N 29°34' W 095°03'0 0.0
2017-Oct-29 05:01N 29°34' W 095°03'0 0.0
2017-Oct-29 04:30N 29°34' W 095°03'0 0.0
2017-Oct-29 04:01N 29°34' W 095°03'  
Track history (hours):
 
Tides and Currents Weather Stations Pressure Air Temp Water Temp Dewpoint Dewpoint Depression Visibility Wind Speed Wind Dir Waves Ship Positions

Diamond Back

Owner: PENINSULA BAY ENTERPRISES LTD CO, Port Bolivar, TX. More information available from US FCC via Universal Licensing System and Coast Guard Vessel Documentation Center.

Last reported at 2017-Nov-07 19:02 UTC. Time now 2017-Nov-21 19:09 UTC.
Position N 29°32' W 094°54'.
Warning: this ship's position is 14 days out of date.

Length 11 m; draft 2.5 m.

Type: Towing. MMSI: 367384650.

Date/timePositionNaut miles runAvg speedWind from/ knotsBaromVisibWave heightAir tempDewpointWater temp
2017-Nov-07 19:02N 29°32' W 094°54'0 6.6
2017-Nov-07 19:00N 29°32' W 094°54'3 6.5
2017-Nov-07 18:31N 29°33' W 094°58'3 5.9
2017-Nov-07 18:01N 29°33' W 095°01'1 2.8
2017-Nov-07 17:30N 29°33' W 095°03'0 0.1
2017-Nov-07 17:00N 29°33' W 095°03'0 0.0
2017-Nov-07 16:30N 29°33' W 095°03'0 0.0
2017-Nov-07 16:00N 29°33' W 095°03'0 0.0
2017-Nov-07 15:30N 29°33' W 095°03'0 0.0
2017-Nov-07 15:01N 29°33' W 095°03'0 0.0
2017-Nov-07 14:30N 29°33' W 095°03'0 0.0
2017-Nov-07 14:01N 29°33' W 095°03'0 0.0
2017-Nov-07 13:30N 29°33' W 095°03'0 0.4
2017-Nov-07 13:01N 29°33' W 095°03'0 0.9
2017-Nov-07 12:31N 29°33' W 095°02'0 0.0
2017-Nov-07 12:01N 29°33' W 095°02'0 0.0
2017-Nov-07 11:31N 29°33' W 095°02'0 0.0
2017-Nov-07 11:00N 29°33' W 095°02'0 0.0
2017-Nov-07 10:31N 29°33' W 095°02'0 0.0
2017-Nov-07 10:00N 29°33' W 095°02'0 0.0
2017-Nov-07 09:31N 29°33' W 095°02'0 0.0
2017-Nov-07 09:00N 29°33' W 095°02'0 0.0
2017-Nov-07 08:30N 29°33' W 095°02'0 0.0
2017-Nov-07 08:01N 29°33' W 095°02'0 0.0
2017-Nov-07 07:30N 29°33' W 095°02'0 0.0
2017-Nov-07 07:00N 29°33' W 095°02'0 0.0
2017-Nov-07 06:31N 29°33' W 095°02'0 0.0
2017-Nov-07 06:01N 29°33' W 095°02'0 0.0
2017-Nov-07 05:31N 29°33' W 095°02'1 2.0
2017-Nov-07 05:00N 29°33' W 095°01'3 6.8
2017-Nov-07 04:30N 29°33' W 094°57'3 0.4
2017-Nov-06 21:11N 29°32' W 094°54'1 5.8
2017-Nov-06 21:00N 29°32' W 094°55'3 5.9
2017-Nov-06 20:30N 29°33' W 094°58'  
2017-Nov-03 20:10N 29°32' W 094°54'1 5.2
2017-Nov-03 19:57N 29°32' W 094°55'3 5.7
2017-Nov-03 19:31N 29°33' W 094°58'3 5.5
2017-Nov-03 19:00N 29°33' W 095°01'2 3.0
2017-Nov-03 18:30N 29°33' W 095°03'0 0.3
2017-Nov-03 18:01N 29°33' W 095°03'0 0.0
2017-Nov-03 17:30N 29°33' W 095°03'0 0.1
2017-Nov-03 17:00N 29°33' W 095°03'0 0.0
2017-Nov-03 16:30N 29°33' W 095°03'0 0.0
2017-Nov-03 16:00N 29°33' W 095°03'0 0.0
2017-Nov-03 15:31N 29°33' W 095°03'0 0.0
2017-Nov-03 15:00N 29°33' W 095°03'0 0.0
2017-Nov-03 14:31N 29°33' W 095°03'0 0.0
2017-Nov-03 14:01N 29°33' W 095°03'0 0.0
2017-Nov-03 13:31N 29°33' W 095°03'0 0.1
2017-Nov-03 13:01N 29°33' W 095°03'1 1.5
2017-Nov-03 12:30N 29°34' W 095°03'1 1.5
2017-Nov-03 12:00N 29°33' W 095°02'0 0.1
2017-Nov-03 11:31N 29°33' W 095°02'0 0.0
2017-Nov-03 11:01N 29°33' W 095°02'0 0.0
2017-Nov-03 10:30N 29°33' W 095°02'0 0.0
2017-Nov-03 10:01N 29°33' W 095°02'0 0.0
2017-Nov-03 09:31N 29°33' W 095°02'0 0.0
2017-Nov-03 09:00N 29°33' W 095°02'0 0.0
2017-Nov-03 08:30N 29°33' W 095°02'0 0.0
2017-Nov-03 08:00N 29°33' W 095°02'0 0.0
2017-Nov-03 07:31N 29°33' W 095°02'0 0.0
2017-Nov-03 07:01N 29°33' W 095°02'0 0.0
2017-Nov-03 06:31N 29°33' W 095°02'0 0.0
2017-Nov-03 06:00N 29°33' W 095°02'0 0.0
2017-Nov-03 05:30N 29°33' W 095°02'0 0.0
2017-Nov-03 05:01N 29°33' W 095°02'0 0.0
2017-Nov-03 04:31N 29°33' W 095°02'0 0.0
2017-Nov-03 04:01N 29°33' W 095°02'0 0.0
2017-Nov-03 03:31N 29°33' W 095°02'1 1.0
2017-Nov-03 03:01N 29°33' W 095°02'3 5.6
2017-Nov-03 02:31N 29°33' W 094°58'3 6.5
2017-Nov-03 02:01N 29°32' W 094°55'1 0.1
2017-Nov-02 18:39N 29°32' W 094°54'1 5.9
2017-Nov-02 18:30N 29°32' W 094°54'3 6.0
2017-Nov-02 18:00N 29°33' W 094°58'3 5.8
2017-Nov-02 17:30N 29°33' W 095°01'1 2.8
2017-Nov-02 17:00N 29°33' W 095°03'0 0.0
2017-Nov-02 16:31N 29°33' W 095°03'0 0.0
2017-Nov-02 16:00N 29°33' W 095°03'0 0.1
2017-Nov-02 15:31N 29°33' W 095°03'0 0.0
2017-Nov-02 15:00N 29°33' W 095°03'0 0.0
2017-Nov-02 14:31N 29°33' W 095°03'0 0.0
2017-Nov-02 14:01N 29°33' W 095°03'0 0.0
2017-Nov-02 13:31N 29°33' W 095°03'0 0.0
2017-Nov-02 13:01N 29°33' W 095°03'0 0.0
2017-Nov-02 12:31N 29°33' W 095°03'1 1.0
2017-Nov-02 12:01N 29°33' W 095°02'0 0.0
2017-Nov-02 11:31N 29°33' W 095°02'0 0.0
2017-Nov-02 11:00N 29°33' W 095°02'0 0.0
2017-Nov-02 10:30N 29°33' W 095°02'0 0.0
2017-Nov-02 10:01N 29°33' W 095°02'0 0.0
2017-Nov-02 09:30N 29°33' W 095°02'0 0.0
2017-Nov-02 09:01N 29°33' W 095°02'0 0.0
2017-Nov-02 08:30N 29°33' W 095°02'0 0.0
2017-Nov-02 08:01N 29°33' W 095°02'0 0.0
2017-Nov-02 07:31N 29°33' W 095°02'0 0.0
2017-Nov-02 07:00N 29°33' W 095°02'0 0.0
2017-Nov-02 06:30N 29°33' W 095°02'0 0.0
2017-Nov-02 06:01N 29°33' W 095°02'0 0.0
2017-Nov-02 05:31N 29°33' W 095°02'0 0.0
2017-Nov-02 05:01N 29°33' W 095°02'0 0.0
2017-Nov-02 04:30N 29°33' W 095°02'0 0.0
2017-Nov-02 04:01N 29°33' W 095°02'0 0.0
2017-Nov-02 03:31N 29°33' W 095°02'0 0.0
2017-Nov-02 03:01N 29°33' W 095°02'2 3.6
2017-Nov-02 02:31N 29°33' W 095°00'3 6.6
2017-Nov-02 02:01N 29°32' W 094°56'3 0.5
2017-Nov-01 19:21N 29°31' W 094°53'2 6.1
2017-Nov-01 19:01N 29°32' W 094°55'3 6.4
2017-Nov-01 18:30N 29°33' W 094°59'6 0.3
2017-Oct-31 20:48N 29°30' W 094°53'2 5.9
2017-Oct-31 20:27N 29°32' W 094°54'3 5.8
2017-Oct-31 20:00N 29°32' W 094°57'3 6.2
2017-Oct-31 19:31N 29°33' W 095°00'2 3.4
2017-Oct-31 19:01N 29°33' W 095°02'1 1.3
2017-Oct-31 18:31N 29°33' W 095°03'0 0.1
2017-Oct-31 18:00N 29°33' W 095°03'0 0.2
2017-Oct-31 17:31N 29°33' W 095°03'0 0.0
2017-Oct-31 17:01N 29°33' W 095°03'0 0.0
2017-Oct-31 16:31N 29°33' W 095°03'0 0.0
2017-Oct-31 16:00N 29°33' W 095°03'0 0.0
2017-Oct-31 15:31N 29°33' W 095°03'0 0.0
2017-Oct-31 15:01N 29°33' W 095°03'0 0.0
2017-Oct-31 14:31N 29°33' W 095°03'0 0.0
2017-Oct-31 14:01N 29°33' W 095°03'0 0.0
2017-Oct-31 13:30N 29°33' W 095°03'0 0.5
2017-Oct-31 13:01N 29°33' W 095°03'0 0.0
2017-Oct-31 12:31N 29°33' W 095°03'0 0.9
2017-Oct-31 12:00N 29°33' W 095°02'0 0.0
2017-Oct-31 11:30N 29°33' W 095°02'0 0.0
2017-Oct-31 11:00N 29°33' W 095°02'0 0.0
2017-Oct-31 10:30N 29°33' W 095°02'0 0.0
2017-Oct-31 10:01N 29°33' W 095°02'0 0.0
2017-Oct-31 09:30N 29°33' W 095°02'0 0.0
2017-Oct-31 09:01N 29°33' W 095°02'0 0.0
2017-Oct-31 08:30N 29°33' W 095°02'0 0.0
2017-Oct-31 08:00N 29°33' W 095°02'0 0.0
2017-Oct-31 07:30N 29°33' W 095°02'0 0.0
2017-Oct-31 07:00N 29°33' W 095°02'0 0.0
2017-Oct-31 06:30N 29°33' W 095°02'0 0.0
2017-Oct-31 06:01N 29°33' W 095°02'0 0.0
2017-Oct-31 05:31N 29°33' W 095°02'0 0.0
2017-Oct-31 05:00N 29°33' W 095°02'0 0.0
2017-Oct-31 04:30N 29°33' W 095°02'0 0.0
2017-Oct-31 04:01N 29°33' W 095°02'0 0.0
2017-Oct-31 03:31N 29°33' W 095°02'0 0.0
2017-Oct-31 03:01N 29°33' W 095°02'1 1.5
2017-Oct-31 02:30N 29°33' W 095°01'3 6.0
2017-Oct-31 02:00N 29°33' W 094°58'3 6.6
2017-Oct-31 01:30N 29°32' W 094°54'0 0.0
2017-Oct-30 18:45N 29°32' W 094°54'1 5.6
2017-Oct-30 18:30N 29°32' W 094°55'3 6.2
2017-Oct-30 18:00N 29°33' W 094°59'2 4.8
2017-Oct-30 17:30N 29°33' W 095°02'1 1.7
2017-Oct-30 17:01N 29°33' W 095°03'0 0.1
2017-Oct-30 16:30N 29°33' W 095°03'0 0.0
2017-Oct-30 16:00N 29°33' W 095°03'0 0.0
2017-Oct-30 15:31N 29°33' W 095°03'0 0.0
2017-Oct-30 15:01N 29°33' W 095°03'0 0.0
2017-Oct-30 14:31N 29°33' W 095°03'0 0.0
2017-Oct-30 13:31N 29°33' W 095°03'0 0.0
2017-Oct-30 13:01N 29°33' W 095°03'0 0.0
2017-Oct-30 12:31N 29°33' W 095°03'1 1.2
2017-Oct-30 12:01N 29°33' W 095°02'0 0.2
2017-Oct-30 11:30N 29°33' W 095°02'0 0.0
2017-Oct-30 11:00N 29°33' W 095°02'2 3.2
2017-Oct-30 10:31N 29°33' W 095°00'3 6.7
2017-Oct-30 10:00N 29°32' W 094°56'3 6.5
2017-Oct-30 09:30N 29°31' W 094°53'2 0.3
2017-Oct-30 04:05N 29°29' W 094°53'2 5.7
2017-Oct-30 03:49N 29°31' W 094°53'2 6.3
2017-Oct-30 03:30N 29°32' W 094°54'3 6.3
2017-Oct-30 03:00N 29°33' W 094°58'3 5.9
2017-Oct-30 02:30N 29°33' W 095°01'1 2.7
2017-Oct-30 02:01N 29°34' W 095°03'0 0.0
2017-Oct-30 01:31N 29°34' W 095°03'0 0.0
2017-Oct-30 01:01N 29°34' W 095°03'0 0.0
2017-Oct-30 00:31N 29°34' W 095°03'0 0.0
2017-Oct-30 00:01N 29°34' W 095°03'0 0.0
2017-Oct-29 23:31N 29°34' W 095°03'0 0.0
2017-Oct-29 23:00N 29°34' W 095°03'0 0.0
2017-Oct-29 22:31N 29°34' W 095°03'0 0.0
2017-Oct-29 22:01N 29°34' W 095°03'0 0.0
2017-Oct-29 21:30N 29°34' W 095°03'0 0.0
2017-Oct-29 21:01N 29°34' W 095°03'0 0.0
2017-Oct-29 20:31N 29°34' W 095°03'0 0.0
2017-Oct-29 20:01N 29°34' W 095°03'0 0.0
2017-Oct-29 19:31N 29°34' W 095°03'0 0.0
2017-Oct-29 19:01N 29°34' W 095°03'0 0.0
2017-Oct-29 18:31N 29°34' W 095°03'0 0.0
2017-Oct-29 18:00N 29°34' W 095°03'0 0.0
2017-Oct-29 17:31N 29°34' W 095°03'0 0.0
2017-Oct-29 17:01N 29°34' W 095°03'0 0.0
2017-Oct-29 16:30N 29°34' W 095°03'0 0.0
2017-Oct-29 16:01N 29°34' W 095°03'0 0.0
2017-Oct-29 15:31N 29°34' W 095°03'0 0.0
2017-Oct-29 15:01N 29°34' W 095°03'0 0.0
2017-Oct-29 14:31N 29°34' W 095°03'0 0.0
2017-Oct-29 14:01N 29°34' W 095°03'0 0.0
2017-Oct-29 13:31N 29°34' W 095°03'0 0.0
2017-Oct-29 13:01N 29°34' W 095°03'0 0.0
2017-Oct-29 12:30N 29°34' W 095°03'0 0.0
2017-Oct-29 12:01N 29°34' W 095°03'0 0.0
2017-Oct-29 11:31N 29°34' W 095°03'0 0.0
2017-Oct-29 11:00N 29°34' W 095°03'0 0.0
2017-Oct-29 10:30N 29°34' W 095°03'0 0.0
2017-Oct-29 10:01N 29°34' W 095°03'0 0.0
2017-Oct-29 09:31N 29°34' W 095°03'0 0.0
2017-Oct-29 09:01N 29°34' W 095°03'0 0.0
2017-Oct-29 08:31N 29°34' W 095°03'0 0.0
2017-Oct-29 08:00N 29°34' W 095°03'0 0.0
2017-Oct-29 07:30N 29°34' W 095°03'0 0.0
2017-Oct-29 07:01N 29°34' W 095°03'0 0.0
2017-Oct-29 06:30N 29°34' W 095°03'0 0.0
2017-Oct-29 06:01N 29°34' W 095°03'0 0.0
2017-Oct-29 05:31N 29°34' W 095°03'0 0.0
2017-Oct-29 05:01N 29°34' W 095°03'0 0.0
2017-Oct-29 04:30N 29°34' W 095°03'0 0.0
2017-Oct-29 04:01N 29°34' W 095°03'  

Dump ship's entire track history